createdAt,value
2017-02-13T02:10:46.296Z,0
2017-02-13T03:26:16.879Z,0
2017-02-13T03:42:14.767Z,0
2017-02-13T03:48:46.431Z,0
2017-02-13T03:51:29.368Z,0
2017-02-13T03:52:09.902Z,0
2017-02-13T03:52:50.419Z,0
2017-02-13T03:56:27.946Z,0
2017-02-13T03:57:08.510Z,0
2017-02-13T03:59:44.289Z,0
2017-02-13T04:00:24.839Z,0
2017-02-13T04:09:39.988Z,0
2017-02-13T04:10:20.539Z,0
2017-02-13T04:11:01.091Z,0
2017-02-13T04:11:41.636Z,0
2017-02-13T04:14:06.781Z,0
2017-02-13T04:14:47.331Z,0
2017-02-13T04:19:39.637Z,0
2017-02-13T04:38:56.271Z,0
2017-02-13T04:39:36.778Z,0
2017-02-13T04:40:17.474Z,0
2017-02-13T04:40:58.025Z,0
2017-02-13T04:41:38.592Z,0
2017-02-13T04:42:19.488Z,0
2017-02-13T04:42:59.985Z,0
2017-02-13T04:43:41.689Z,0
2017-02-13T04:44:22.161Z,0
2017-02-13T04:45:02.799Z,0
2017-02-13T05:15:24.278Z,0
2017-02-13T05:16:04.793Z,0
2017-02-13T05:16:45.318Z,0
2017-02-13T05:17:25.857Z,0
2017-02-13T05:18:06.376Z,0
2017-02-13T05:31:03.841Z,0
2017-02-13T05:31:44.359Z,0
2017-02-13T05:32:24.899Z,0
2017-02-13T05:33:05.411Z,0
2017-02-13T05:33:45.940Z,0
2017-02-13T05:34:26.457Z,0
2017-02-13T05:36:40.611Z,0
2017-02-13T05:37:21.195Z,0
2017-02-13T05:38:03.143Z,0
2017-02-13T05:38:45.471Z,0
2017-02-13T05:39:26.014Z,0
2017-02-13T05:40:06.522Z,0
2017-02-13T05:40:47.042Z,0
2017-02-13T05:41:27.570Z,0
2017-02-13T05:42:08.101Z,0
2017-02-13T05:42:48.634Z,0
2017-02-13T05:43:29.114Z,0
2017-02-13T05:44:11.530Z,0
2017-02-13T05:44:55.767Z,0
2017-02-13T05:45:49.677Z,0
2017-02-13T05:48:04.793Z,0
2017-02-13T05:48:45.336Z,0
2017-02-13T05:49:25.847Z,0
2017-02-13T05:50:06.391Z,0
2017-02-13T05:50:46.915Z,0
2017-02-13T05:51:27.441Z,0
2017-02-13T05:52:07.980Z,0
2017-02-13T05:52:48.499Z,0
2017-02-13T05:53:29.023Z,0
2017-02-13T05:54:09.544Z,0
2017-02-13T05:54:50.079Z,0
2017-02-13T05:55:30.582Z,0
2017-02-13T05:56:11.099Z,0
2017-02-13T05:56:51.589Z,0
2017-02-13T05:57:32.129Z,0
2017-02-13T05:58:12.665Z,0
2017-02-13T05:58:53.197Z,0
2017-02-13T05:59:33.720Z,0
2017-02-13T06:00:16.870Z,0
2017-02-13T06:00:57.392Z,0
2017-02-13T06:01:37.913Z,0
2017-02-13T06:02:18.452Z,0
2017-02-13T06:02:58.973Z,0
2017-02-13T06:03:39.500Z,0
2017-02-13T06:04:20.013Z,0
2017-02-13T06:05:00.524Z,0
2017-02-13T06:05:41.053Z,0
2017-02-13T06:06:21.601Z,0
2017-02-13T06:07:02.118Z,0
2017-02-13T06:07:42.663Z,0
2017-02-13T06:08:23.209Z,0
2017-02-13T06:09:03.715Z,0
2017-02-13T06:09:44.235Z,0
2017-02-13T06:10:24.764Z,0
2017-02-13T06:11:05.297Z,0
2017-02-13T06:11:45.821Z,0
2017-02-13T06:12:26.353Z,0
2017-02-13T06:13:06.961Z,0
2017-02-13T06:13:47.462Z,0
2017-02-13T06:14:29.902Z,0
2017-02-13T06:15:12.522Z,0
2017-02-13T06:15:54.807Z,0
2017-02-13T06:16:35.357Z,0
2017-02-13T06:17:15.852Z,0
2017-02-13T06:17:56.385Z,0
2017-02-13T06:18:36.913Z,0
2017-02-13T06:19:17.435Z,0
2017-02-13T06:19:57.976Z,0
2017-02-13T06:20:38.504Z,0
2017-02-13T06:21:19.025Z,0
2017-02-13T06:21:59.558Z,0
2017-02-13T06:22:40.107Z,0
2017-02-13T06:23:20.627Z,4
2017-02-13T06:24:01.154Z,4
2017-02-13T06:24:41.777Z,4
2017-02-13T06:25:22.255Z,0
2017-02-13T06:26:02.797Z,0
2017-02-13T06:26:43.316Z,4
2017-02-13T06:27:23.846Z,4
2017-02-13T06:28:04.370Z,0
2017-02-13T06:28:44.904Z,4
2017-02-13T06:29:25.449Z,4
2017-02-13T06:30:05.967Z,4
2017-02-13T06:30:46.511Z,4
2017-02-13T06:31:27.022Z,4
2017-02-13T06:32:07.563Z,4
2017-02-13T06:32:48.156Z,4
2017-02-13T06:33:28.678Z,8
2017-02-13T06:34:09.208Z,8
2017-02-13T06:34:49.766Z,8
2017-02-13T06:35:30.305Z,8
2017-02-13T06:36:10.871Z,12
2017-02-13T06:36:51.354Z,12
2017-02-13T06:37:31.825Z,12
2017-02-13T06:38:12.332Z,12
2017-02-13T06:38:52.848Z,12
2017-02-13T06:39:33.362Z,16
2017-02-13T06:40:13.853Z,16
2017-02-13T06:40:54.356Z,16
2017-02-13T06:41:34.821Z,20
2017-02-13T06:42:15.331Z,24
2017-02-13T06:42:55.821Z,24
2017-02-13T06:43:36.286Z,24
2017-02-13T06:44:16.764Z,24
2017-02-13T06:44:57.245Z,28
2017-02-13T06:45:37.783Z,28
2017-02-13T06:46:18.327Z,28
2017-02-13T06:46:58.856Z,32
2017-02-13T06:47:39.371Z,32
2017-02-13T06:48:19.907Z,36
2017-02-13T06:49:00.410Z,40
2017-02-13T06:49:40.958Z,40
2017-02-13T06:50:21.516Z,40
2017-02-13T06:51:02.054Z,40
2017-02-13T06:51:42.586Z,44
2017-02-13T06:52:23.115Z,44
2017-02-13T06:53:03.631Z,48
2017-02-13T06:53:44.157Z,52
2017-02-13T06:54:24.674Z,52
2017-02-13T06:55:05.220Z,56
2017-02-13T06:55:45.721Z,60
2017-02-13T06:56:26.241Z,60
2017-02-13T06:57:06.770Z,64
2017-02-13T06:57:47.252Z,64
2017-02-13T06:58:27.773Z,68
2017-02-13T06:59:08.330Z,76
2017-02-13T06:59:48.873Z,76
2017-02-13T07:00:29.349Z,76
2017-02-13T07:01:09.825Z,80
2017-02-13T07:01:50.319Z,84
2017-02-13T07:02:30.814Z,84
2017-02-13T07:03:11.279Z,92
2017-02-13T07:03:51.761Z,92
2017-02-13T07:04:32.236Z,100
2017-02-13T07:05:12.716Z,104
2017-02-13T07:05:53.226Z,108
2017-02-13T07:06:33.695Z,108
2017-02-13T07:07:14.214Z,116
2017-02-13T07:07:54.757Z,120
2017-02-13T07:08:35.289Z,128
2017-02-13T07:09:15.798Z,136
2017-02-13T07:09:56.263Z,132
2017-02-13T07:10:36.796Z,132
2017-02-13T07:11:17.320Z,140
2017-02-13T07:11:57.835Z,148
2017-02-13T07:12:38.364Z,152
2017-02-13T07:13:18.904Z,152
2017-02-13T07:13:59.416Z,152
2017-02-13T07:14:39.967Z,156
2017-02-13T07:15:20.479Z,168
2017-02-13T07:16:01.013Z,180
2017-02-13T07:16:42.116Z,192
2017-02-13T07:17:22.716Z,204
2017-02-13T07:18:03.233Z,204
2017-02-13T07:18:43.784Z,200
2017-02-13T07:19:24.373Z,208
2017-02-13T07:20:04.899Z,216
2017-02-13T07:20:45.435Z,220
2017-02-13T07:21:25.987Z,236
2017-02-13T07:22:06.499Z,244
2017-02-13T07:22:47.016Z,284
2017-02-13T07:23:27.507Z,288
2017-02-13T07:24:08.164Z,308
2017-02-13T07:24:48.671Z,304
2017-02-13T07:25:29.167Z,304
2017-02-13T07:26:09.724Z,312
2017-02-13T07:26:50.143Z,308
2017-02-13T07:27:30.666Z,328
2017-02-13T07:28:11.111Z,352
2017-02-13T07:28:51.625Z,352
2017-02-13T07:29:32.099Z,348
2017-02-13T07:30:12.660Z,352
2017-02-13T07:30:53.212Z,380
2017-02-13T07:31:33.758Z,400
2017-02-13T07:32:14.245Z,440
2017-02-13T07:32:54.760Z,436
2017-02-13T07:33:35.215Z,428
2017-02-13T07:34:15.694Z,408
2017-02-13T07:34:56.211Z,420
2017-02-13T07:35:36.658Z,452
2017-02-13T07:36:17.168Z,540
2017-02-13T07:36:57.675Z,604
2017-02-13T07:37:38.106Z,744
2017-02-13T07:38:18.593Z,712
2017-02-13T07:38:59.079Z,752
2017-02-13T07:39:39.589Z,732
2017-02-13T07:40:20.081Z,700
2017-02-13T07:41:00.570Z,808
2017-02-13T07:41:41.126Z,836
2017-02-13T07:42:21.624Z,868
2017-02-13T07:43:02.103Z,760
2017-02-13T07:43:42.611Z,672
2017-02-13T07:44:23.070Z,660
2017-02-13T07:45:03.557Z,648
2017-02-13T07:45:44.145Z,636
2017-02-13T07:46:24.594Z,704
2017-02-13T07:47:05.138Z,688
2017-02-13T07:47:45.648Z,684
2017-02-13T07:48:26.134Z,676
2017-02-13T07:49:06.623Z,700
2017-02-13T07:49:47.135Z,724
2017-02-13T07:50:27.617Z,668
2017-02-13T07:51:08.086Z,744
2017-02-13T07:51:48.550Z,708
2017-02-13T07:52:29.073Z,716
2017-02-13T07:53:09.573Z,764
2017-02-13T07:53:50.162Z,780
2017-02-13T07:54:35.132Z,796
2017-02-13T07:55:15.649Z,820
2017-02-13T07:55:56.175Z,916
2017-02-13T07:56:36.723Z,952
2017-02-13T07:57:17.270Z,888
2017-02-13T07:57:57.807Z,908
2017-02-13T07:58:38.338Z,980
2017-02-13T07:59:18.884Z,1112
2017-02-13T07:59:59.424Z,1128
2017-02-13T08:00:39.954Z,1172
2017-02-13T08:01:20.526Z,1188
2017-02-13T08:02:01.042Z,1108
2017-02-13T08:02:41.571Z,1296
2017-02-13T08:03:22.086Z,1372
2017-02-13T08:04:02.634Z,1180
2017-02-13T08:04:43.164Z,1088
2017-02-13T08:05:23.685Z,1248
2017-02-13T08:06:04.223Z,1308
2017-02-13T08:06:44.760Z,1348
2017-02-13T08:07:25.268Z,1364
2017-02-13T08:08:05.730Z,1256
2017-02-13T08:08:46.217Z,1156
2017-02-13T08:09:26.743Z,1084
2017-02-13T08:10:07.290Z,1224
2017-02-13T08:10:47.823Z,1204
2017-02-13T08:11:28.355Z,1148
2017-02-13T08:12:08.886Z,1316
2017-02-13T08:12:49.406Z,1196
2017-02-13T08:13:29.933Z,1044
2017-02-13T08:14:10.420Z,1128
2017-02-13T08:14:50.961Z,1212
2017-02-13T08:15:31.411Z,1280
2017-02-13T08:16:12.029Z,1124
2017-02-13T08:16:52.573Z,1200
2017-02-13T08:17:33.006Z,1252
2017-02-13T08:18:13.536Z,1428
2017-02-13T08:18:54.073Z,1292
2017-02-13T08:19:34.608Z,1280
2017-02-13T08:20:15.103Z,1428
2017-02-13T08:20:55.614Z,1556
2017-02-13T08:21:36.156Z,1464
2017-02-13T08:22:16.620Z,1664
2017-02-13T08:22:57.100Z,1460
2017-02-13T08:23:37.625Z,1640
2017-02-13T08:24:18.158Z,1644
2017-02-13T08:24:58.689Z,1660
2017-02-13T08:25:39.209Z,1824
2017-02-13T08:26:19.725Z,1996
2017-02-13T08:27:00.240Z,1804
2017-02-13T08:27:40.791Z,1800
2017-02-13T08:28:21.338Z,1584
2017-02-13T08:29:01.844Z,1536
2017-02-13T08:29:42.374Z,1808
2017-02-13T08:30:22.894Z,1908
2017-02-13T08:31:03.416Z,1908
2017-02-13T08:31:43.955Z,1980
2017-02-13T08:32:24.507Z,1716
2017-02-13T08:33:05.024Z,2072
2017-02-13T08:33:45.573Z,2476
2017-02-13T08:34:26.059Z,2344
2017-02-13T08:35:06.537Z,2328
2017-02-13T08:35:47.018Z,2908
2017-02-13T08:36:27.503Z,2844
2017-02-13T08:37:08.018Z,2792
2017-02-13T08:37:50.181Z,3096
2017-02-13T08:38:30.656Z,3080
2017-02-13T08:39:11.140Z,3076
2017-02-13T08:39:51.685Z,3576
2017-02-13T08:40:32.103Z,3740
2017-02-13T08:41:12.625Z,3628
2017-02-13T08:41:53.111Z,3372
2017-02-13T08:42:33.651Z,3704
2017-02-13T08:43:14.130Z,3816
2017-02-13T08:43:54.663Z,3228
2017-02-13T08:44:35.177Z,3468
2017-02-13T08:45:15.701Z,3352
2017-02-13T08:45:56.236Z,3056
2017-02-13T08:46:36.753Z,3336
2017-02-13T08:47:17.277Z,3272
2017-02-13T08:47:57.797Z,3252
2017-02-13T08:48:38.324Z,3528
2017-02-13T08:49:18.859Z,3532
2017-02-13T08:49:59.394Z,3116
2017-02-13T08:50:39.908Z,3056
2017-02-13T08:51:20.449Z,3644
2017-02-13T08:52:00.963Z,3260
2017-02-13T08:52:41.482Z,2884
2017-02-13T08:53:22.053Z,3268
2017-02-13T08:54:02.581Z,3604
2017-02-13T08:54:43.130Z,3248
2017-02-13T08:55:23.652Z,3184
2017-02-13T08:56:04.181Z,3508
2017-02-13T08:56:44.710Z,3416
2017-02-13T08:57:25.198Z,3696
2017-02-13T08:58:05.696Z,3984
2017-02-13T08:58:46.163Z,3700
2017-02-13T08:59:26.678Z,3520
2017-02-13T09:00:07.155Z,4204
2017-02-13T09:00:47.738Z,4364
2017-02-13T09:01:28.292Z,4284
2017-02-13T09:02:08.737Z,4668
2017-02-13T09:02:49.247Z,5640
2017-02-13T09:03:29.780Z,4828
2017-02-13T09:04:10.293Z,6512
2017-02-13T09:04:50.821Z,4812
2017-02-13T09:05:31.333Z,5308
2017-02-13T09:06:11.885Z,6728
2017-02-13T09:06:52.435Z,8208
2017-02-13T09:07:32.996Z,5560
2017-02-13T09:08:13.461Z,4900
2017-02-13T09:08:54.032Z,4588
2017-02-13T09:09:34.590Z,7076
2017-02-13T09:10:15.085Z,5568
2017-02-13T09:10:55.555Z,5624
2017-02-13T09:11:36.065Z,5060
2017-02-13T09:12:16.550Z,6960
2017-02-13T09:12:57.093Z,5484
2017-02-13T09:13:37.588Z,6144
2017-02-13T09:14:18.122Z,6688
2017-02-13T09:14:58.635Z,8036
2017-02-13T09:15:39.169Z,5728
2017-02-13T09:16:19.693Z,9456
2017-02-13T09:17:00.223Z,7452
2017-02-13T09:17:40.736Z,14080
2017-02-13T09:18:21.279Z,16768
2017-02-13T09:19:01.793Z,7456
2017-02-13T09:19:42.329Z,6452
2017-02-13T09:20:22.862Z,14560
2017-02-13T09:21:03.395Z,12864
2017-02-13T09:21:43.937Z,13316
2017-02-13T09:22:24.444Z,15776
2017-02-13T09:23:04.992Z,5832
2017-02-13T09:23:45.516Z,15104
2017-02-13T09:24:26.073Z,15904
2017-02-13T09:25:06.603Z,5696
2017-02-13T09:25:47.120Z,8948
2017-02-13T09:26:27.648Z,6436
2017-02-13T09:27:08.166Z,6248
2017-02-13T09:27:48.694Z,15968
2017-02-13T09:28:29.214Z,17888
2017-02-13T09:29:09.739Z,18272
2017-02-13T09:29:50.292Z,18208
2017-02-13T09:30:30.863Z,18880
2017-02-13T09:31:11.394Z,18304
2017-02-13T09:31:51.935Z,14380
2017-02-13T09:32:32.448Z,18048
2017-02-13T09:33:12.976Z,18656
2017-02-13T09:33:53.502Z,20352
2017-02-13T09:34:34.027Z,18752
2017-02-13T09:35:14.551Z,16608
2017-02-13T09:35:55.107Z,16384
2017-02-13T09:36:35.671Z,20800
2017-02-13T09:37:16.204Z,20832
2017-02-13T09:37:56.751Z,14720
2017-02-13T09:38:37.302Z,20608
2017-02-13T09:39:17.847Z,20224
2017-02-13T09:39:58.323Z,19840
2017-02-13T09:40:38.826Z,19264
2017-02-13T09:41:19.329Z,20448
2017-02-13T09:41:59.840Z,22272
2017-02-13T09:42:40.312Z,20384
2017-02-13T09:43:20.857Z,20032
2017-02-13T09:44:01.338Z,9564
2017-02-13T09:44:41.858Z,21760
2017-02-13T09:45:22.322Z,21824
2017-02-13T09:46:02.846Z,20736
2017-02-13T09:46:43.331Z,22688
2017-02-13T09:47:23.848Z,22656
2017-02-13T09:48:04.373Z,23360
2017-02-13T09:48:44.902Z,23520
2017-02-13T09:49:25.435Z,21760
2017-02-13T09:50:05.959Z,22528
2017-02-13T09:50:46.462Z,23648
2017-02-13T09:51:26.966Z,22048
2017-02-13T09:52:07.499Z,22368
2017-02-13T09:52:48.048Z,23104
2017-02-13T09:53:28.554Z,23552
2017-02-13T09:54:09.073Z,22528
2017-02-13T09:54:49.532Z,24416
2017-02-13T09:55:30.048Z,24832
2017-02-13T09:56:10.575Z,25120
2017-02-13T09:56:51.082Z,25984
2017-02-13T09:57:31.633Z,25344
2017-02-13T09:58:12.154Z,26336
2017-02-13T09:58:52.660Z,25984
2017-02-13T09:59:33.193Z,24928
2017-02-13T10:00:13.752Z,24160
2017-02-13T10:00:54.293Z,24640
2017-02-13T10:01:34.833Z,23968
2017-02-13T10:02:15.354Z,25440
2017-02-13T10:02:55.877Z,24416
2017-02-13T10:03:36.407Z,24256
2017-02-13T10:04:16.945Z,26368
2017-02-13T10:04:57.465Z,27040
2017-02-13T10:05:37.932Z,27872
2017-02-13T10:06:18.433Z,8464
2017-02-13T10:06:58.947Z,27168
2017-02-13T10:07:39.488Z,28032
2017-02-13T10:08:20.004Z,27680
2017-02-13T10:09:00.569Z,26848
2017-02-13T10:09:41.111Z,28032
2017-02-13T10:10:21.667Z,29248
2017-02-13T10:11:02.136Z,29632
2017-02-13T10:11:42.633Z,28000
2017-02-13T10:12:23.158Z,28384
2017-02-13T10:13:03.716Z,30624
2017-02-13T10:13:44.229Z,31072
2017-02-13T10:14:24.711Z,28256
2017-02-13T10:15:05.208Z,30048
2017-02-13T10:15:45.685Z,30656
2017-02-13T10:16:26.219Z,30304
2017-02-13T10:17:06.713Z,31872
2017-02-13T10:17:47.207Z,31744
2017-02-13T10:18:27.676Z,31168
2017-02-13T10:19:08.181Z,30400
2017-02-13T10:19:48.705Z,31392
2017-02-13T10:20:29.239Z,30976
2017-02-13T10:21:09.754Z,31488
2017-02-13T10:21:50.266Z,31328
2017-02-13T10:22:30.911Z,30720
2017-02-13T10:23:11.454Z,30816
2017-02-13T10:23:51.993Z,29888
2017-02-13T10:24:32.507Z,30656
2017-02-13T10:25:13.043Z,30208
2017-02-13T10:25:53.563Z,31488
2017-02-13T10:26:34.123Z,31648
2017-02-13T10:27:14.672Z,32704
2017-02-13T10:27:55.230Z,30752
2017-02-13T10:28:35.769Z,31904
2017-02-13T10:29:16.306Z,30944
2017-02-13T10:29:56.870Z,29280
2017-02-13T10:30:37.403Z,20896
2017-02-13T10:31:17.957Z,12872
2017-02-13T10:31:58.507Z,10404
2017-02-13T10:32:39.029Z,10116
2017-02-13T10:33:19.569Z,9880
2017-02-13T10:34:00.116Z,9984
2017-02-13T10:34:40.667Z,10092
2017-02-13T10:35:21.218Z,10104
2017-02-13T10:36:01.764Z,9940
2017-02-13T10:36:42.252Z,10040
2017-02-13T10:37:22.735Z,9960
2017-02-13T10:38:03.257Z,10044
2017-02-13T10:38:43.753Z,10008
2017-02-13T10:39:24.217Z,9680
2017-02-13T10:40:04.730Z,9928
2017-02-13T10:40:45.247Z,10108
2017-02-13T10:41:25.721Z,10136
2017-02-13T10:42:06.247Z,9996
2017-02-13T10:42:46.782Z,10048
2017-02-13T10:43:27.255Z,10040
2017-02-13T10:44:07.806Z,9976
2017-02-13T10:44:48.357Z,10044
2017-02-13T10:45:28.896Z,10224
2017-02-13T10:46:09.467Z,10200
2017-02-13T10:46:50.013Z,10124
2017-02-13T10:47:30.540Z,10136
2017-02-13T10:48:11.030Z,10220
2017-02-13T10:48:51.547Z,10104
2017-02-13T10:49:32.003Z,10168
2017-02-13T10:50:12.484Z,10304
2017-02-13T10:50:52.994Z,10340
2017-02-13T10:51:33.542Z,10220
2017-02-13T10:52:15.904Z,10204
2017-02-13T10:52:56.391Z,10368
2017-02-13T10:53:36.935Z,10300
2017-02-13T10:54:17.453Z,10504
2017-02-13T10:54:57.935Z,10308
2017-02-13T10:55:38.424Z,10220
2017-02-13T10:56:18.914Z,10232
2017-02-13T10:56:59.414Z,10372
2017-02-13T10:57:39.933Z,10184
2017-02-13T10:58:20.458Z,10336
2017-02-13T10:59:01.017Z,10404
2017-02-13T10:59:41.529Z,10300
2017-02-13T11:00:22.064Z,10372
2017-02-13T11:01:02.562Z,10476
2017-02-13T11:01:43.109Z,10616
2017-02-13T11:02:23.600Z,10584
2017-02-13T11:03:04.132Z,10456
2017-02-13T11:03:44.588Z,10512
2017-02-13T11:04:25.085Z,10628
2017-02-13T11:05:05.603Z,10552
2017-02-13T11:05:46.146Z,10564
2017-02-13T11:06:26.623Z,10616
2017-02-13T11:07:07.166Z,10612
2017-02-13T11:07:47.674Z,10592
2017-02-13T11:08:28.145Z,10544
2017-02-13T11:09:08.681Z,10504
2017-02-13T11:09:49.168Z,10576
2017-02-13T11:10:29.682Z,10496
2017-02-13T11:11:10.177Z,10460
2017-02-13T11:11:50.695Z,10484
2017-02-13T11:12:31.243Z,10472
2017-02-13T11:13:11.772Z,10428
2017-02-13T11:13:52.249Z,10416
2017-02-13T11:14:32.773Z,10412
2017-02-13T11:15:13.249Z,10384
2017-02-13T11:15:53.760Z,10284
2017-02-13T11:16:34.252Z,10288
2017-02-13T11:17:14.793Z,10356
2017-02-13T11:17:55.309Z,10336
2017-02-13T11:18:35.837Z,10308
2017-02-13T11:19:16.356Z,10204
2017-02-13T11:19:56.899Z,10148
2017-02-13T11:20:37.452Z,10000
2017-02-13T11:21:17.997Z,10056
2017-02-13T11:21:58.535Z,10084
2017-02-13T11:22:39.097Z,10188
2017-02-13T11:23:19.623Z,10088
2017-02-13T11:24:00.163Z,10116
2017-02-13T11:24:40.708Z,10012
2017-02-13T11:25:21.227Z,10156
2017-02-13T11:26:01.764Z,10044
2017-02-13T11:26:42.308Z,10028
2017-02-13T11:27:22.859Z,10148
2017-02-13T11:28:03.400Z,10140
2017-02-13T11:28:43.928Z,10204
2017-02-13T11:29:24.482Z,10228
2017-02-13T11:30:05.031Z,10128
2017-02-13T11:30:45.568Z,10188
2017-02-13T11:31:26.098Z,10368
2017-02-13T11:32:06.635Z,12596
2017-02-13T11:32:47.175Z,19648
2017-02-13T11:33:27.719Z,24384
2017-02-13T11:34:08.253Z,22880
2017-02-13T11:34:48.773Z,15968
2017-02-13T11:35:29.328Z,11204
2017-02-13T11:36:09.872Z,10088
2017-02-13T11:36:50.393Z,10104
2017-02-13T11:37:30.930Z,9896
2017-02-13T11:38:11.467Z,9820
2017-02-13T11:38:52.016Z,9936
2017-02-13T11:39:32.561Z,9864
2017-02-13T11:40:13.113Z,9800
2017-02-13T11:40:53.689Z,9936
2017-02-13T11:41:34.224Z,9820
2017-02-13T11:42:14.750Z,9784
2017-02-13T11:42:55.251Z,9736
2017-02-13T11:43:35.755Z,9624
2017-02-13T11:44:16.232Z,9752
2017-02-13T11:44:56.723Z,9836
2017-02-13T11:45:37.221Z,9736
2017-02-13T11:46:17.744Z,9636
2017-02-13T11:46:58.235Z,9664
2017-02-13T11:47:38.783Z,9516
2017-02-13T11:48:19.325Z,9476
2017-02-13T11:48:59.826Z,9384
2017-02-13T11:49:40.305Z,9428
2017-02-13T11:50:20.818Z,9312
2017-02-13T11:51:01.307Z,9388
2017-02-13T11:51:41.821Z,9288
2017-02-13T11:52:22.339Z,9224
2017-02-13T11:53:02.862Z,9136
2017-02-13T11:53:43.392Z,9128
2017-02-13T11:54:23.877Z,9116
2017-02-13T11:55:04.405Z,9036
2017-02-13T11:55:44.972Z,9124
2017-02-13T11:56:25.512Z,9076
2017-02-13T11:57:06.009Z,8832
2017-02-13T11:57:46.546Z,8948
2017-02-13T11:58:27.081Z,9072
2017-02-13T11:59:07.619Z,8736
2017-02-13T11:59:48.162Z,8928
2017-02-13T12:00:28.696Z,8860
2017-02-13T12:01:09.217Z,8872
2017-02-13T12:01:49.706Z,8924
2017-02-13T12:02:30.234Z,8748
2017-02-13T12:03:10.743Z,8592
2017-02-13T12:03:51.285Z,8632
2017-02-13T12:04:31.808Z,8744
2017-02-13T12:05:12.339Z,8696
2017-02-13T12:05:52.847Z,8620
2017-02-13T12:06:33.379Z,8584
2017-02-13T12:07:13.917Z,8528
2017-02-13T12:07:54.435Z,8516
2017-02-13T12:08:34.933Z,8460
2017-02-13T12:09:15.458Z,8448
2017-02-13T12:09:55.983Z,8488
2017-02-13T12:10:36.489Z,8276
2017-02-13T12:11:17.026Z,8400
2017-02-13T12:11:57.582Z,8412
2017-02-13T12:12:38.131Z,8280
2017-02-13T12:13:18.683Z,8204
2017-02-13T12:13:59.221Z,8280
2017-02-13T12:14:39.742Z,8268
2017-02-13T12:15:20.273Z,8196
2017-02-13T12:16:00.799Z,8204
2017-02-13T12:16:41.333Z,8072
2017-02-13T12:17:22.763Z,7960
2017-02-13T12:18:03.343Z,8084
2017-02-13T12:18:46.142Z,8128
2017-02-13T12:19:26.419Z,8112
2017-02-13T12:20:07.143Z,8132
2017-02-13T12:22:25.111Z,7992
2017-02-13T12:23:05.644Z,8016
2017-02-13T12:23:46.192Z,7944
2017-02-13T12:24:26.732Z,7936
2017-02-13T12:25:07.256Z,7752
2017-02-13T12:25:47.804Z,7776
2017-02-13T12:26:28.318Z,7780
2017-02-13T12:27:08.849Z,7736
2017-02-13T12:27:50.935Z,7712
2017-02-13T12:28:31.443Z,7676
2017-02-13T12:29:11.974Z,7640
2017-02-13T12:29:52.552Z,7480
2017-02-13T12:30:33.095Z,7668
2017-02-13T12:31:13.611Z,7600
2017-02-13T12:31:54.148Z,7588
2017-02-13T12:32:34.685Z,7472
2017-02-13T12:33:15.197Z,7584
2017-02-13T12:33:55.745Z,7568
2017-02-13T12:34:36.281Z,7528
2017-02-13T12:35:16.849Z,7476
2017-02-13T12:35:57.356Z,7444
2017-02-13T12:36:37.889Z,7420
2017-02-13T12:37:18.429Z,7420
2017-02-13T12:37:58.965Z,7476
2017-02-13T12:38:39.498Z,7424
2017-02-13T12:39:20.010Z,7332
2017-02-13T12:40:00.543Z,7348
2017-02-13T12:40:41.107Z,7208
2017-02-13T12:41:21.642Z,7164
2017-02-13T12:42:02.189Z,7252
2017-02-13T12:42:42.713Z,7192
2017-02-13T12:43:23.253Z,7156
2017-02-13T12:44:03.784Z,7124
2017-02-13T12:44:44.298Z,7148
2017-02-13T12:45:31.888Z,7108
2017-02-13T12:46:05.364Z,6996
2017-02-13T12:46:45.903Z,7116
2017-02-13T12:47:26.447Z,7032
2017-02-13T12:48:06.947Z,7148
2017-02-13T12:48:47.494Z,7016
2017-02-13T12:49:28.022Z,7024
2017-02-13T12:50:08.580Z,6936
2017-02-13T12:50:49.105Z,6812
2017-02-13T12:51:29.660Z,7004
2017-02-13T12:52:10.198Z,7000
2017-02-13T12:52:50.720Z,6956
2017-02-13T12:53:31.244Z,6904
2017-02-13T12:54:11.759Z,6872
2017-02-13T12:54:52.312Z,6884
2017-02-13T12:55:32.876Z,6900
2017-02-13T12:56:13.418Z,6920
2017-02-13T12:56:53.961Z,6940
2017-02-13T12:57:34.492Z,6832
2017-02-13T12:58:15.026Z,6944
2017-02-13T12:58:55.558Z,6820
2017-02-13T12:59:36.094Z,6908
2017-02-13T13:00:16.639Z,6772
2017-02-13T13:00:57.146Z,6844
2017-02-13T13:01:37.672Z,6748
2017-02-13T13:02:18.204Z,6688
2017-02-13T13:02:58.725Z,6680
2017-02-13T13:03:39.269Z,6904
2017-02-13T13:04:19.794Z,6752
2017-02-13T13:05:00.318Z,6696
2017-02-13T13:05:40.852Z,6732
2017-02-13T13:06:21.367Z,6760
2017-02-13T13:07:01.951Z,6620
2017-02-13T13:07:42.477Z,6480
2017-02-13T13:08:23.010Z,6588
2017-02-13T13:09:05.429Z,6568
2017-02-13T13:09:45.966Z,6608
2017-02-13T13:10:26.516Z,6612
2017-02-13T13:11:07.064Z,6536
2017-02-13T13:11:47.575Z,6384
2017-02-13T13:12:28.106Z,6452
2017-02-13T13:13:08.652Z,6504
2017-02-13T13:13:49.168Z,6504
2017-02-13T13:14:29.746Z,6484
2017-02-13T13:15:10.269Z,6348
2017-02-13T13:15:50.796Z,6328
2017-02-13T13:16:31.328Z,6412
2017-02-13T13:17:11.865Z,6380
2017-02-13T13:17:52.405Z,6276
2017-02-13T13:18:32.920Z,6296
2017-02-13T13:19:13.460Z,6376
2017-02-13T13:19:53.985Z,6264
2017-02-13T13:20:34.515Z,6180
2017-02-13T13:21:15.065Z,6216
2017-02-13T13:21:55.617Z,6144
2017-02-13T13:22:36.178Z,6164
2017-02-13T13:23:16.712Z,6152
2017-02-13T13:23:57.228Z,6176
2017-02-13T13:24:37.773Z,6152
2017-02-13T13:25:18.328Z,5912
2017-02-13T13:25:58.879Z,5912
2017-02-13T13:26:39.410Z,6104
2017-02-13T13:27:19.929Z,6072
2017-02-13T13:28:00.470Z,6008
2017-02-13T13:28:41.014Z,5940
2017-02-13T13:29:21.553Z,5740
2017-02-13T13:30:02.112Z,5928
2017-02-13T13:30:44.431Z,5988
2017-02-13T13:31:24.972Z,5864
2017-02-13T13:32:05.508Z,5744
2017-02-13T13:32:46.034Z,5972
2017-02-13T13:33:26.560Z,5932
2017-02-13T13:34:07.081Z,5904
2017-02-13T13:34:47.616Z,5852
2017-02-13T13:35:28.157Z,5796
2017-02-13T13:36:08.679Z,5848
2017-02-13T13:36:49.202Z,5896
2017-02-13T13:37:29.721Z,5900
2017-02-13T13:38:10.263Z,5852
2017-02-13T13:38:50.780Z,5836
2017-02-13T13:39:31.361Z,5832
2017-02-13T13:40:11.906Z,5848
2017-02-13T13:40:52.429Z,5792
2017-02-13T13:41:32.976Z,5852
2017-02-13T13:42:13.537Z,5820
2017-02-13T13:42:54.118Z,5772
2017-02-13T13:43:34.632Z,5628
2017-02-13T13:44:15.159Z,5724
2017-02-13T13:44:55.694Z,5732
2017-02-13T13:45:36.223Z,5528
2017-02-13T13:46:16.753Z,5700
2017-02-13T13:46:58.347Z,5712
2017-02-13T13:47:38.855Z,5648
2017-02-13T13:48:19.377Z,5492
2017-02-13T13:48:59.900Z,5576
2017-02-13T13:49:40.423Z,5608
2017-02-13T13:50:20.961Z,5584
2017-02-13T13:51:01.458Z,5500
2017-02-13T13:51:42.008Z,5436
2017-02-13T13:52:22.558Z,5456
2017-02-13T13:53:03.097Z,5508
2017-02-13T13:53:43.614Z,5504
2017-02-13T13:54:24.160Z,5456
2017-02-13T13:55:04.679Z,5468
2017-02-13T13:55:45.215Z,5420
2017-02-13T13:56:25.723Z,5432
2017-02-13T13:57:06.264Z,5416
2017-02-13T13:57:46.785Z,5400
2017-02-13T13:58:27.315Z,5288
2017-02-13T13:59:07.849Z,5332
2017-02-13T13:59:48.366Z,5348
2017-02-13T14:00:28.922Z,5292
2017-02-13T14:01:09.465Z,5264
2017-02-13T14:01:50.020Z,5244
2017-02-13T14:02:30.571Z,5204
2017-02-13T14:03:11.126Z,5212
2017-02-13T14:03:51.663Z,5180
2017-02-13T14:04:32.181Z,5132
2017-02-13T14:05:12.715Z,5152
2017-02-13T14:05:53.288Z,5084
2017-02-13T14:06:33.824Z,5064
2017-02-13T14:07:14.357Z,5064
2017-02-13T14:07:54.883Z,5048
2017-02-13T14:08:35.422Z,5040
2017-02-13T14:09:15.944Z,4992
2017-02-13T14:11:45.446Z,4984
2017-02-13T14:12:26.785Z,4944
2017-02-13T14:13:07.335Z,4860
2017-02-13T14:13:47.874Z,4824
2017-02-13T14:14:28.414Z,4764
2017-02-13T14:15:08.989Z,4808
2017-02-13T14:15:49.507Z,4832
2017-02-13T14:16:30.052Z,4840
2017-02-13T14:17:10.573Z,4796
2017-02-13T14:17:51.116Z,4752
2017-02-13T14:18:31.653Z,4732
2017-02-13T14:19:12.197Z,4744
2017-02-13T14:19:52.751Z,4764
2017-02-13T14:20:33.327Z,4736
2017-02-13T14:21:13.867Z,4688
2017-02-13T14:21:54.401Z,4684
2017-02-13T14:22:35.013Z,4720
2017-02-13T14:23:15.527Z,4748